< < Back
Terminal Aerodrome Forecast


Current Version              Previous Versions:   1  2  3  4  5  6  7  8  9  

Terminal Aerodrome Forecast

154
FTUS42 KTAE 011124
TAFVLD
TAF
KVLD 011124Z 0112/0212 VRB03KT 6SM BR SCT002 BKN250
      TEMPO 0112/0114 3SM BR BKN002
     FM011700 17004KT P6SM VCTS BKN030CB
     FM011900 18010KT 3SM TSRA BKN030CB
     FM020100 22008KT P6SM -SHRA VCTS SCT040CB BKN100=



Latest METAR

163
SAUS70 KWBC 011756
MTRVLD
METAR KVLD 011753Z 09004KT 10SM HZ FEW027 SCT032 BKN075 31/24 A2990 RMK
AO2 SLP129 60000 T03060244 10317 20250 58012


USA.gov is the U.S. government's official web portal to all federal, state and local government web resources and services.